sensor_id;sensor_type;location;lat;lon;timestamp;pressure;altitude;pressure_sealevel;temperature;humidity
76998;BME280;65930;48.874;10.734;2024-02-23T00:01:16;93979.50;;;7.22;100.00
76998;BME280;65930;48.874;10.734;2024-02-23T00:03:44;93979.34;;;7.29;100.00
76998;BME280;65930;48.874;10.734;2024-02-23T00:06:12;93982.53;;;7.28;100.00
76998;BME280;65930;48.874;10.734;2024-02-23T00:08:41;93994.31;;;7.44;100.00
76998;BME280;65930;48.874;10.734;2024-02-23T00:11:09;94033.13;;;7.34;100.00
76998;BME280;65930;48.874;10.734;2024-02-23T00:13:39;94079.19;;;5.65;100.00
76998;BME280;65930;48.874;10.734;2024-02-23T00:16:07;94090.75;;;4.69;100.00
76998;BME280;65930;48.874;10.734;2024-02-23T00:18:35;94098.75;;;4.53;100.00
76998;BME280;65930;48.874;10.734;2024-02-23T00:21:03;94104.22;;;4.56;100.00
76998;BME280;65930;48.874;10.734;2024-02-23T00:23:32;94103.47;;;4.52;100.00
76998;BME280;65930;48.874;10.734;2024-02-23T00:26:00;94117.25;;;4.45;100.00
76998;BME280;65930;48.874;10.734;2024-02-23T00:28:28;94136.19;;;4.32;100.00
76998;BME280;65930;48.874;10.734;2024-02-23T00:30:57;94113.09;;;4.33;100.00
76998;BME280;65930;48.874;10.734;2024-02-23T00:33:25;94126.44;;;4.28;100.00
76998;BME280;65930;48.874;10.734;2024-02-23T00:35:53;94126.44;;;4.28;100.00
76998;BME280;65930;48.874;10.734;2024-02-23T00:38:21;94125.38;;;4.18;100.00
76998;BME280;65930;48.874;10.734;2024-02-23T00:40:49;94132.41;;;4.16;100.00
76998;BME280;65930;48.874;10.734;2024-02-23T00:43:19;94123.84;;;4.14;100.00
76998;BME280;65930;48.874;10.734;2024-02-23T00:45:47;94138.00;;;4.05;100.00
76998;BME280;65930;48.874;10.734;2024-02-23T00:48:16;94136.06;;;4.02;100.00
76998;BME280;65930;48.874;10.734;2024-02-23T00:50:44;94147.53;;;3.90;100.00
76998;BME280;65930;48.874;10.734;2024-02-23T00:53:12;94137.81;;;3.78;100.00
76998;BME280;65930;48.874;10.734;2024-02-23T00:55:40;94135.91;;;3.75;100.00
76998;BME280;65930;48.874;10.734;2024-02-23T00:58:08;94144.50;;;3.74;100.00
76998;BME280;65930;48.874;10.734;2024-02-23T01:00:37;94144.13;;;3.75;100.00
76998;BME280;65930;48.874;10.734;2024-02-23T01:03:05;94143.72;;;3.77;100.00
76998;BME280;65930;48.874;10.734;2024-02-23T01:05:35;94148.78;;;3.82;100.00
76998;BME280;65930;48.874;10.734;2024-02-23T01:08:05;94141.72;;;3.81;100.00
76998;BME280;65930;48.874;10.734;2024-02-23T01:10:33;94147.97;;;3.85;100.00
76998;BME280;65930;48.874;10.734;2024-02-23T01:13:01;94143.22;;;3.89;100.00
76998;BME280;65930;48.874;10.734;2024-02-23T01:15:29;94140.88;;;3.91;100.00
76998;BME280;65930;48.874;10.734;2024-02-23T01:17:57;94141.53;;;4.02;100.00
76998;BME280;65930;48.874;10.734;2024-02-23T01:20:25;94152.88;;;4.04;100.00
76998;BME280;65930;48.874;10.734;2024-02-23T01:22:54;94160.31;;;4.04;100.00
76998;BME280;65930;48.874;10.734;2024-02-23T01:25:22;94164.59;;;4.08;100.00
76998;BME280;65930;48.874;10.734;2024-02-23T01:27:50;94161.06;;;4.08;100.00
76998;BME280;65930;48.874;10.734;2024-02-23T01:30:18;94156.78;;;4.07;100.00
76998;BME280;65930;48.874;10.734;2024-02-23T01:32:46;94166.16;;;4.09;100.00
76998;BME280;65930;48.874;10.734;2024-02-23T01:35:14;94160.25;;;4.14;100.00
76998;BME280;65930;48.874;10.734;2024-02-23T01:37:42;94164.91;;;4.17;100.00
76998;BME280;65930;48.874;10.734;2024-02-23T01:40:12;94157.06;;;4.19;100.00
76998;BME280;65930;48.874;10.734;2024-02-23T01:42:40;94159.81;;;4.19;100.00
76998;BME280;65930;48.874;10.734;2024-02-23T01:45:10;94167.25;;;4.19;100.00
76998;BME280;65930;48.874;10.734;2024-02-23T01:47:38;94165.59;;;4.28;100.00
76998;BME280;65930;48.874;10.734;2024-02-23T01:50:08;94164.78;;;4.31;100.00
76998;BME280;65930;48.874;10.734;2024-02-23T01:52:39;94165.50;;;4.35;100.00
76998;BME280;65930;48.874;10.734;2024-02-23T01:55:07;94163.16;;;4.34;100.00
76998;BME280;65930;48.874;10.734;2024-02-23T01:57:37;94187.09;;;4.33;100.00
76998;BME280;65930;48.874;10.734;2024-02-23T02:00:18;94181.22;;;4.31;100.00
76998;BME280;65930;48.874;10.734;2024-02-23T02:02:48;94180.38;;;4.38;100.00
76998;BME280;65930;48.874;10.734;2024-02-23T02:05:16;94175.25;;;4.40;100.00
76998;BME280;65930;48.874;10.734;2024-02-23T02:07:49;94187.44;;;4.35;100.00
76998;BME280;65930;48.874;10.734;2024-02-23T02:10:20;94183.13;;;4.34;100.00
76998;BME280;65930;48.874;10.734;2024-02-23T02:12:50;94183.53;;;4.36;100.00
76998;BME280;65930;48.874;10.734;2024-02-23T02:15:18;94187.44;;;4.35;100.00
76998;BME280;65930;48.874;10.734;2024-02-23T02:17:48;94191.75;;;4.36;100.00
76998;BME280;65930;48.874;10.734;2024-02-23T02:20:18;94193.72;;;4.36;100.00
76998;BME280;65930;48.874;10.734;2024-02-23T02:22:48;94197.22;;;4.36;100.00
76998;BME280;65930;48.874;10.734;2024-02-23T02:25:16;94215.59;;;4.39;100.00
76998;BME280;65930;48.874;10.734;2024-02-23T02:27:44;94224.25;;;4.38;100.00
76998;BME280;65930;48.874;10.734;2024-02-23T02:30:14;94225.81;;;4.35;100.00
76998;BME280;65930;48.874;10.734;2024-02-23T02:32:42;94229.38;;;4.32;100.00
76998;BME280;65930;48.874;10.734;2024-02-23T02:35:11;94223.47;;;4.34;100.00
76998;BME280;65930;48.874;10.734;2024-02-23T02:37:39;94212.50;;;4.34;100.00
76998;BME280;65930;48.874;10.734;2024-02-23T02:40:08;94208.59;;;4.35;100.00
76998;BME280;65930;48.874;10.734;2024-02-23T02:42:36;94211.38;;;4.31;100.00
76998;BME280;65930;48.874;10.734;2024-02-23T02:45:05;94211.03;;;4.26;100.00
76998;BME280;65930;48.874;10.734;2024-02-23T02:47:34;94214.09;;;4.31;100.00
76998;BME280;65930;48.874;10.734;2024-02-23T02:50:03;94199.66;;;4.27;100.00
76998;BME280;65930;48.874;10.734;2024-02-23T02:52:33;94200.06;;;4.26;100.00
76998;BME280;65930;48.874;10.734;2024-02-23T02:55:01;94191.06;;;4.25;100.00
76998;BME280;65930;48.874;10.734;2024-02-23T02:57:29;94200.09;;;4.22;100.00
76998;BME280;65930;48.874;10.734;2024-02-23T02:59:57;94203.22;;;4.24;100.00
76998;BME280;65930;48.874;10.734;2024-02-23T03:02:25;94218.50;;;4.22;100.00
76998;BME280;65930;48.874;10.734;2024-02-23T03:04:54;94220.44;;;4.21;100.00
76998;BME280;65930;48.874;10.734;2024-02-23T03:07:22;94213.41;;;4.20;100.00
76998;BME280;65930;48.874;10.734;2024-02-23T03:09:50;94221.19;;;4.25;100.00
76998;BME280;65930;48.874;10.734;2024-02-23T03:12:18;94215.38;;;4.23;100.00
76998;BME280;65930;48.874;10.734;2024-02-23T03:14:46;94217.34;;;4.19;100.00
76998;BME280;65930;48.874;10.734;2024-02-23T03:17:14;94202.47;;;4.17;100.00
76998;BME280;65930;48.874;10.734;2024-02-23T03:19:42;94213.06;;;4.18;100.00
76998;BME280;65930;48.874;10.734;2024-02-23T03:22:12;94219.34;;;4.15;100.00
76998;BME280;65930;48.874;10.734;2024-02-23T03:24:40;94228.31;;;4.16;100.00
76998;BME280;65930;48.874;10.734;2024-02-23T03:27:08;94215.81;;;4.15;100.00
76998;BME280;65930;48.874;10.734;2024-02-23T03:29:38;94217.75;;;4.18;100.00
76998;BME280;65930;48.874;10.734;2024-02-23T03:32:07;94202.53;;;4.13;100.00
76998;BME280;65930;48.874;10.734;2024-02-23T03:34:35;94204.88;;;4.11;100.00
76998;BME280;65930;48.874;10.734;2024-02-23T03:37:03;94206.44;;;4.12;100.00
76998;BME280;65930;48.874;10.734;2024-02-23T03:39:33;94203.69;;;4.12;100.00
76998;BME280;65930;48.874;10.734;2024-02-23T03:42:01;94189.22;;;4.12;100.00
76998;BME280;65930;48.874;10.734;2024-02-23T03:44:29;94190.00;;;4.12;100.00
76998;BME280;65930;48.874;10.734;2024-02-23T03:46:58;94208.00;;;4.13;100.00
76998;BME280;65930;48.874;10.734;2024-02-23T03:49:26;94195.88;;;4.14;100.00
76998;BME280;65930;48.874;10.734;2024-02-23T03:51:54;94194.69;;;4.12;100.00
76998;BME280;65930;48.874;10.734;2024-02-23T03:54:22;94193.91;;;4.11;100.00
76998;BME280;65930;48.874;10.734;2024-02-23T03:56:52;94205.28;;;4.10;100.00
76998;BME280;65930;48.874;10.734;2024-02-23T03:59:20;94201.00;;;4.09;100.00
76998;BME280;65930;48.874;10.734;2024-02-23T04:01:48;94201.78;;;4.09;100.00
76998;BME280;65930;48.874;10.734;2024-02-23T04:04:16;94200.19;;;4.12;100.00
76998;BME280;65930;48.874;10.734;2024-02-23T04:06:44;94215.84;;;4.11;100.00
76998;BME280;65930;48.874;10.734;2024-02-23T04:09:12;94221.31;;;4.11;100.00
76998;BME280;65930;48.874;10.734;2024-02-23T04:11:40;94209.56;;;4.14;100.00
76998;BME280;65930;48.874;10.734;2024-02-23T04:14:09;94231.84;;;4.16;100.00
76998;BME280;65930;48.874;10.734;2024-02-23T04:16:37;94233.81;;;4.16;100.00
76998;BME280;65930;48.874;10.734;2024-02-23T04:19:05;94242.44;;;4.14;100.00
76998;BME280;65930;48.874;10.734;2024-02-23T04:21:37;94240.50;;;4.11;100.00
76998;BME280;65930;48.874;10.734;2024-02-23T04:24:05;94242.88;;;4.09;100.00
76998;BME280;65930;48.874;10.734;2024-02-23T04:26:35;94244.44;;;4.10;100.00
76998;BME280;65930;48.874;10.734;2024-02-23T04:29:03;94249.91;;;4.10;100.00
76998;BME280;65930;48.874;10.734;2024-02-23T04:31:32;94256.56;;;4.09;100.00
76998;BME280;65930;48.874;10.734;2024-02-23T04:34:00;94269.91;;;4.04;100.00
76998;BME280;65930;48.874;10.734;2024-02-23T04:36:28;94269.13;;;4.03;100.00
76998;BME280;65930;48.874;10.734;2024-02-23T04:38:56;94277.75;;;4.05;100.00
76998;BME280;65930;48.874;10.734;2024-02-23T04:41:24;94291.44;;;4.05;100.00
76998;BME280;65930;48.874;10.734;2024-02-23T04:43:52;94296.09;;;4.08;100.00
76998;BME280;65930;48.874;10.734;2024-02-23T04:46:28;94286.38;;;4.00;100.00
76998;BME280;65930;48.874;10.734;2024-02-23T04:48:58;94282.88;;;3.99;100.00
76998;BME280;65930;48.874;10.734;2024-02-23T04:51:26;94285.59;;;3.99;100.00
76998;BME280;65930;48.874;10.734;2024-02-23T04:53:54;94280.16;;;3.96;100.00
76998;BME280;65930;48.874;10.734;2024-02-23T04:56:22;94279.38;;;3.92;100.00
76998;BME280;65930;48.874;10.734;2024-02-23T04:58:51;94273.53;;;3.90;100.00
76998;BME280;65930;48.874;10.734;2024-02-23T05:01:19;94267.66;;;3.88;100.00
76998;BME280;65930;48.874;10.734;2024-02-23T05:03:47;94263.00;;;3.81;100.00
76998;BME280;65930;48.874;10.734;2024-02-23T05:06:16;94273.22;;;3.77;100.00
76998;BME280;65930;48.874;10.734;2024-02-23T05:08:44;94272.03;;;3.75;100.00
76998;BME280;65930;48.874;10.734;2024-02-23T05:11:14;94261.16;;;3.68;100.00
76998;BME280;65930;48.874;10.734;2024-02-23T05:13:43;94259.94;;;3.69;100.00
76998;BME280;65930;48.874;10.734;2024-02-23T05:16:11;94261.91;;;3.72;100.00
76998;BME280;65930;48.874;10.734;2024-02-23T05:18:39;94246.25;;;3.69;100.00
76998;BME280;65930;48.874;10.734;2024-02-23T05:21:08;94262.69;;;3.69;100.00
76998;BME280;65930;48.874;10.734;2024-02-23T05:23:37;94252.53;;;3.66;100.00
76998;BME280;65930;48.874;10.734;2024-02-23T05:26:05;94241.97;;;3.68;100.00
76998;BME280;65930;48.874;10.734;2024-02-23T05:28:34;94253.34;;;3.63;100.00
76998;BME280;65930;48.874;10.734;2024-02-23T05:31:02;94245.91;;;3.60;100.00
76998;BME280;65930;48.874;10.734;2024-02-23T05:33:31;94260.75;;;3.66;100.00
76998;BME280;65930;48.874;10.734;2024-02-23T05:35:59;94267.00;;;3.66;100.00
76998;BME280;65930;48.874;10.734;2024-02-23T05:38:27;94263.84;;;3.71;99.02
76998;BME280;65930;48.874;10.734;2024-02-23T05:40:56;94273.22;;;3.74;99.21
76998;BME280;65930;48.874;10.734;2024-02-23T05:43:24;94281.88;;;3.65;100.00
76998;BME280;65930;48.874;10.734;2024-02-23T05:45:52;94275.63;;;3.65;99.46
76998;BME280;65930;48.874;10.734;2024-02-23T05:48:23;94281.50;;;3.60;100.00
76998;BME280;65930;48.874;10.734;2024-02-23T05:50:52;94281.91;;;3.58;99.01
76998;BME280;65930;48.874;10.734;2024-02-23T05:53:20;94281.91;;;3.62;98.25
76998;BME280;65930;48.874;10.734;2024-02-23T05:55:48;94289.72;;;3.60;96.76
76998;BME280;65930;48.874;10.734;2024-02-23T05:58:17;94299.47;;;3.64;95.03
76998;BME280;65930;48.874;10.734;2024-02-23T06:00:45;94308.13;;;3.59;95.30
76998;BME280;65930;48.874;10.734;2024-02-23T06:03:13;94312.00;;;3.65;92.23
76998;BME280;65930;48.874;10.734;2024-02-23T06:05:41;94314.69;;;3.69;93.34
76998;BME280;65930;48.874;10.734;2024-02-23T06:08:09;94321.03;;;3.59;94.38
76998;BME280;65930;48.874;10.734;2024-02-23T06:10:37;94330.41;;;3.58;95.62
76998;BME280;65930;48.874;10.734;2024-02-23T06:13:05;94332.38;;;3.53;95.27
76998;BME280;65930;48.874;10.734;2024-02-23T06:15:35;94315.56;;;3.51;95.84
76998;BME280;65930;48.874;10.734;2024-02-23T06:18:03;94285.84;;;3.50;96.66
76998;BME280;65930;48.874;10.734;2024-02-23T06:20:34;94288.19;;;3.51;95.38
76998;BME280;65930;48.874;10.734;2024-02-23T06:23:02;94293.66;;;3.51;94.33
76998;BME280;65930;48.874;10.734;2024-02-23T06:25:30;94292.50;;;3.52;95.28
76998;BME280;65930;48.874;10.734;2024-02-23T06:27:58;94303.84;;;3.47;94.79
76998;BME280;65930;48.874;10.734;2024-02-23T06:30:26;94322.63;;;3.45;94.93
76998;BME280;65930;48.874;10.734;2024-02-23T06:32:55;94326.16;;;3.46;95.02
76998;BME280;65930;48.874;10.734;2024-02-23T06:35:23;94336.31;;;3.49;94.47
76998;BME280;65930;48.874;10.734;2024-02-23T06:37:51;94339.84;;;3.49;94.60
76998;BME280;65930;48.874;10.734;2024-02-23T06:40:19;94340.63;;;3.46;96.13
76998;BME280;65930;48.874;10.734;2024-02-23T06:42:47;94357.03;;;3.46;95.75
76998;BME280;65930;48.874;10.734;2024-02-23T06:45:16;94347.66;;;3.47;96.52
76998;BME280;65930;48.874;10.734;2024-02-23T06:47:45;94353.91;;;3.48;97.35
76998;BME280;65930;48.874;10.734;2024-02-23T06:50:17;94347.66;;;3.47;98.21
76998;BME280;65930;48.874;10.734;2024-02-23T06:52:45;94349.59;;;3.47;97.86
76998;BME280;65930;48.874;10.734;2024-02-23T06:55:15;94336.72;;;3.47;98.05
76998;BME280;65930;48.874;10.734;2024-02-23T06:57:46;94337.50;;;3.48;98.88
76998;BME280;65930;48.874;10.734;2024-02-23T07:00:15;94324.59;;;3.48;98.55
76998;BME280;65930;48.874;10.734;2024-02-23T07:02:43;94320.28;;;3.47;99.37
76998;BME280;65930;48.874;10.734;2024-02-23T07:05:11;94318.69;;;3.53;96.45
76998;BME280;65930;48.874;10.734;2024-02-23T07:07:41;94314.78;;;3.54;96.82
76998;BME280;65930;48.874;10.734;2024-02-23T07:10:09;94314.00;;;3.54;98.14
76998;BME280;65930;48.874;10.734;2024-02-23T07:12:38;94320.25;;;3.51;98.00
76998;BME280;65930;48.874;10.734;2024-02-23T07:15:07;94326.13;;;3.57;98.76
76998;BME280;65930;48.874;10.734;2024-02-23T07:17:35;94339.81;;;3.57;98.56
76998;BME280;65930;48.874;10.734;2024-02-23T07:20:03;94331.19;;;3.62;98.72
76998;BME280;65930;48.874;10.734;2024-02-23T07:22:33;94333.16;;;3.58;99.49
76998;BME280;65930;48.874;10.734;2024-02-23T07:25:02;94332.75;;;3.55;99.48
76998;BME280;65930;48.874;10.734;2024-02-23T07:27:30;94340.19;;;3.59;98.29
76998;BME280;65930;48.874;10.734;2024-02-23T07:29:58;94349.97;;;3.56;98.37
76998;BME280;65930;48.874;10.734;2024-02-23T07:32:26;94357.41;;;3.59;99.10
76998;BME280;65930;48.874;10.734;2024-02-23T07:34:57;94364.03;;;3.62;99.35
76998;BME280;65930;48.874;10.734;2024-02-23T07:37:26;94353.09;;;3.62;99.94
76998;BME280;65930;48.874;10.734;2024-02-23T07:39:53;94356.19;;;3.67;99.02
76998;BME280;65930;48.874;10.734;2024-02-23T07:42:23;94353.03;;;3.69;99.36
76998;BME280;65930;48.874;10.734;2024-02-23T07:44:51;94349.13;;;3.70;99.93
76998;BME280;65930;48.874;10.734;2024-02-23T07:47:19;94357.75;;;3.72;100.00
76998;BME280;65930;48.874;10.734;2024-02-23T07:49:47;94357.75;;;3.72;100.00
76998;BME280;65930;48.874;10.734;2024-02-23T07:52:15;94365.13;;;3.82;99.30
76998;BME280;65930;48.874;10.734;2024-02-23T07:54:43;94352.97;;;3.86;99.01
76998;BME280;65930;48.874;10.734;2024-02-23T07:57:13;94366.25;;;3.88;100.00
76998;BME280;65930;48.874;10.734;2024-02-23T07:59:45;94359.19;;;3.94;99.96
76998;BME280;65930;48.874;10.734;2024-02-23T08:02:14;94359.59;;;3.96;100.00
76998;BME280;65930;48.874;10.734;2024-02-23T08:04:42;94348.16;;;4.08;100.00
76998;BME280;65930;48.874;10.734;2024-02-23T08:07:11;94360.63;;;4.16;100.00
76998;BME280;65930;48.874;10.734;2024-02-23T08:09:39;94359.84;;;4.23;100.00
76998;BME280;65930;48.874;10.734;2024-02-23T08:12:07;94353.50;;;4.29;100.00
76998;BME280;65930;48.874;10.734;2024-02-23T08:14:36;94344.75;;;4.49;100.00
76998;BME280;65930;48.874;10.734;2024-02-23T08:17:05;94349.13;;;4.42;100.00
76998;BME280;65930;48.874;10.734;2024-02-23T08:19:33;94348.34;;;4.42;100.00
76998;BME280;65930;48.874;10.734;2024-02-23T08:22:01;94345.97;;;4.48;100.00
76998;BME280;65930;48.874;10.734;2024-02-23T08:24:29;94342.97;;;4.76;100.00
76998;BME280;65930;48.874;10.734;2024-02-23T08:26:58;94364.03;;;4.93;100.00
76998;BME280;65930;48.874;10.734;2024-02-23T08:29:26;94360.22;;;4.80;100.00
76998;BME280;65930;48.874;10.734;2024-02-23T08:31:54;94362.13;;;4.83;100.00
76998;BME280;65930;48.874;10.734;2024-02-23T08:34:24;94369.34;;;4.63;100.00
76998;BME280;65930;48.874;10.734;2024-02-23T08:36:52;94367.81;;;4.62;100.00
76998;BME280;65930;48.874;10.734;2024-02-23T08:39:20;94378.41;;;4.53;100.00
76998;BME280;65930;48.874;10.734;2024-02-23T08:41:49;94381.94;;;4.57;100.00
76998;BME280;65930;48.874;10.734;2024-02-23T08:44:18;94365.97;;;4.41;100.00
76998;BME280;65930;48.874;10.734;2024-02-23T08:46:47;94366.66;;;4.56;100.00
76998;BME280;65930;48.874;10.734;2024-02-23T08:49:15;94372.59;;;4.43;100.00
76998;BME280;65930;48.874;10.734;2024-02-23T08:51:44;94368.31;;;4.42;100.00
76998;BME280;65930;48.874;10.734;2024-02-23T08:54:12;94371.47;;;4.41;100.00
76998;BME280;65930;48.874;10.734;2024-02-23T08:56:40;94377.63;;;4.56;100.00
76998;BME280;65930;48.874;10.734;2024-02-23T08:59:09;94387.84;;;4.52;100.00
76998;BME280;65930;48.874;10.734;2024-02-23T09:01:37;94387.47;;;4.50;100.00
76998;BME280;65930;48.874;10.734;2024-02-23T09:04:05;94396.84;;;4.52;100.00
76998;BME280;65930;48.874;10.734;2024-02-23T09:06:34;94399.59;;;4.52;100.00
76998;BME280;65930;48.874;10.734;2024-02-23T09:09:07;94392.50;;;4.62;100.00
76998;BME280;65930;48.874;10.734;2024-02-23T09:11:35;94387.00;;;4.58;100.00
76998;BME280;65930;48.874;10.734;2024-02-23T09:14:03;94379.09;;;4.71;100.00
76998;BME280;65930;48.874;10.734;2024-02-23T09:16:31;94378.00;;;4.61;100.00
76998;BME280;65930;48.874;10.734;2024-02-23T09:19:00;94378.41;;;4.53;100.00
76998;BME280;65930;48.874;10.734;2024-02-23T09:21:28;94381.56;;;4.55;100.00
76998;BME280;65930;48.874;10.734;2024-02-23T09:23:56;94386.13;;;4.72;100.00
76998;BME280;65930;48.874;10.734;2024-02-23T09:26:25;94401.03;;;4.71;100.00
76998;BME280;65930;48.874;10.734;2024-02-23T09:28:53;94410.47;;;4.66;100.00
76998;BME280;65930;48.874;10.734;2024-02-23T09:31:21;94416.81;;;4.56;100.00
76998;BME280;65930;48.874;10.734;2024-02-23T09:33:49;94409.69;;;4.66;100.00
76998;BME280;65930;48.874;10.734;2024-02-23T09:36:18;94398.25;;;4.74;100.00
76998;BME280;65930;48.874;10.734;2024-02-23T09:38:46;94410.38;;;4.77;100.00
76998;BME280;65930;48.874;10.734;2024-02-23T09:41:20;94417.44;;;4.78;100.00
76998;BME280;65930;48.874;10.734;2024-02-23T09:43:50;94409.66;;;4.69;100.00
76998;BME280;65930;48.874;10.734;2024-02-23T09:46:19;94402.56;;;4.75;100.00
76998;BME280;65930;48.874;10.734;2024-02-23T09:48:49;94401.72;;;4.82;100.00
76998;BME280;65930;48.874;10.734;2024-02-23T09:51:18;94404.09;;;4.80;100.00
76998;BME280;65930;48.874;10.734;2024-02-23T09:53:49;94417.84;;;4.73;100.00
76998;BME280;65930;48.874;10.734;2024-02-23T09:56:18;94413.16;;;4.73;100.00
76998;BME280;65930;48.874;10.734;2024-02-23T09:58:50;94408.81;;;4.79;100.00
76998;BME280;65930;48.874;10.734;2024-02-23T10:01:27;94409.94;;;4.82;100.00
76998;BME280;65930;48.874;10.734;2024-02-23T10:03:57;94418.25;;;4.75;100.00
76998;BME280;65930;48.874;10.734;2024-02-23T10:06:25;94424.41;;;4.86;100.00
76998;BME280;65930;48.874;10.734;2024-02-23T10:08:54;94414.78;;;4.64;100.00
76998;BME280;65930;48.874;10.734;2024-02-23T10:11:23;94417.53;;;4.64;100.00
76998;BME280;65930;48.874;10.734;2024-02-23T10:13:54;94421.38;;;4.73;100.00
76998;BME280;65930;48.874;10.734;2024-02-23T10:16:22;94417.84;;;4.73;100.00
76998;BME280;65930;48.874;10.734;2024-02-23T10:18:50;94423.66;;;4.82;100.00
76998;BME280;65930;48.874;10.734;2024-02-23T10:21:18;94422.53;;;4.76;100.00
76998;BME280;65930;48.874;10.734;2024-02-23T10:23:47;94426.84;;;4.77;100.00
76998;BME280;65930;48.874;10.734;2024-02-23T10:26:17;94420.13;;;4.85;100.00
76998;BME280;65930;48.874;10.734;2024-02-23T10:28:47;94426.91;;;4.70;98.12
76998;BME280;65930;48.874;10.734;2024-02-23T10:31:17;94425.63;;;4.81;99.28
76998;BME280;65930;48.874;10.734;2024-02-23T10:33:45;94426.06;;;4.80;100.00
76998;BME280;65930;48.874;10.734;2024-02-23T10:36:15;94433.06;;;4.84;99.96
76998;BME280;65930;48.874;10.734;2024-02-23T10:38:46;94434.94;;;4.98;100.00
76998;BME280;65930;48.874;10.734;2024-02-23T10:41:17;94436.94;;;4.94;100.00
76998;BME280;65930;48.874;10.734;2024-02-23T10:43:47;94439.25;;;4.96;98.54
76998;BME280;65930;48.874;10.734;2024-02-23T10:46:18;94436.94;;;4.94;99.83
76998;BME280;65930;48.874;10.734;2024-02-23T10:48:49;94433.84;;;4.85;99.83
76998;BME280;65930;48.874;10.734;2024-02-23T10:51:18;94441.22;;;4.95;98.04
76998;BME280;65930;48.874;10.734;2024-02-23T10:53:48;94424.41;;;4.90;98.75
76998;BME280;65930;48.874;10.734;2024-02-23T10:56:17;94418.97;;;4.82;99.09
76998;BME280;65930;48.874;10.734;2024-02-23T10:58:45;94415.84;;;4.84;98.51
76998;BME280;65930;48.874;10.734;2024-02-23T11:01:14;94422.06;;;4.88;99.56
76998;BME280;65930;48.874;10.734;2024-02-23T11:03:44;94427.59;;;4.81;98.60
76998;BME280;65930;48.874;10.734;2024-02-23T11:06:16;94421.31;;;4.84;98.35
76998;BME280;65930;48.874;10.734;2024-02-23T11:08:48;94429.16;;;4.82;97.74
76998;BME280;65930;48.874;10.734;2024-02-23T11:11:17;94434.66;;;4.82;97.40
76998;BME280;65930;48.874;10.734;2024-02-23T11:13:46;94417.41;;;4.85;97.97
76998;BME280;65930;48.874;10.734;2024-02-23T11:16:22;94420.88;;;4.89;97.58
76998;BME280;65930;48.874;10.734;2024-02-23T11:19:03;94418.50;;;4.91;96.99
76998;BME280;65930;48.874;10.734;2024-02-23T11:21:35;94415.78;;;4.87;96.44
76998;BME280;65930;48.874;10.734;2024-02-23T11:24:05;94417.72;;;4.91;97.16
76998;BME280;65930;48.874;10.734;2024-02-23T11:26:37;94412.97;;;4.98;98.14
76998;BME280;65930;48.874;10.734;2024-02-23T11:29:10;94416.94;;;4.94;96.20
76998;BME280;65930;48.874;10.734;2024-02-23T11:31:45;94416.53;;;4.92;96.19
76998;BME280;65930;48.874;10.734;2024-02-23T11:34:21;94420.50;;;4.87;94.54
76998;BME280;65930;48.874;10.734;2024-02-23T11:36:51;94415.72;;;4.98;94.98
76998;BME280;65930;48.874;10.734;2024-02-23T11:39:20;94416.50;;;4.95;93.89
76998;BME280;65930;48.874;10.734;2024-02-23T11:41:48;94408.78;;;4.83;93.60
76998;BME280;65930;48.874;10.734;2024-02-23T11:44:17;94410.34;;;4.84;94.38
76998;BME280;65930;48.874;10.734;2024-02-23T11:46:46;94398.59;;;4.83;93.68
76998;BME280;65930;48.874;10.734;2024-02-23T11:49:16;94404.72;;;5.02;94.25
76998;BME280;65930;48.874;10.734;2024-02-23T11:51:44;94402.00;;;4.98;93.58
76998;BME280;65930;48.874;10.734;2024-02-23T11:54:12;94408.00;;;4.82;91.77
76998;BME280;65930;48.874;10.734;2024-02-23T11:56:40;94415.06;;;4.83;92.78
76998;BME280;65930;48.874;10.734;2024-02-23T11:59:10;94415.88;;;4.80;89.76
76998;BME280;65930;48.874;10.734;2024-02-23T12:01:38;94410.28;;;4.91;88.67
76998;BME280;65930;48.874;10.734;2024-02-23T12:04:06;94404.00;;;4.94;88.76
76998;BME280;65930;48.874;10.734;2024-02-23T12:06:36;94401.00;;;4.74;87.94
76998;BME280;65930;48.874;10.734;2024-02-23T12:09:04;94402.53;;;4.79;88.74
76998;BME280;65930;48.874;10.734;2024-02-23T12:11:32;94404.84;;;4.84;89.19
76998;BME280;65930;48.874;10.734;2024-02-23T12:14:01;94402.44;;;4.93;89.61
76998;BME280;65930;48.874;10.734;2024-02-23T12:16:35;94402.56;;;4.75;87.08
76998;BME280;65930;48.874;10.734;2024-02-23T12:19:03;94397.09;;;4.75;86.60
76998;BME280;65930;48.874;10.734;2024-02-23T12:21:35;94400.13;;;4.88;88.66
76998;BME280;65930;48.874;10.734;2024-02-23T12:24:05;94396.56;;;4.91;86.99
76998;BME280;65930;48.874;10.734;2024-02-23T12:26:34;94384.84;;;4.87;87.65
76998;BME280;65930;48.874;10.734;2024-02-23T12:29:03;94380.94;;;4.84;88.00
76998;BME280;65930;48.874;10.734;2024-02-23T12:31:32;94385.22;;;4.85;87.64
76998;BME280;65930;48.874;10.734;2024-02-23T12:34:01;94385.25;;;4.82;86.09
76998;BME280;65930;48.874;10.734;2024-02-23T12:36:29;94384.91;;;4.80;86.87
76998;BME280;65930;48.874;10.734;2024-02-23T12:39:03;94369.59;;;4.82;86.48
76998;BME280;65930;48.874;10.734;2024-02-23T12:41:32;94371.81;;;4.95;86.66
76998;BME280;65930;48.874;10.734;2024-02-23T12:44:00;94378.06;;;5.02;87.09
76998;BME280;65930;48.874;10.734;2024-02-23T12:46:28;94379.31;;;4.94;86.49
76998;BME280;65930;48.874;10.734;2024-02-23T12:48:56;94380.19;;;4.80;86.53
76998;BME280;65930;48.874;10.734;2024-02-23T12:51:25;94377.00;;;4.89;86.70
76998;BME280;65930;48.874;10.734;2024-02-23T12:53:54;94395.44;;;4.85;86.61
76998;BME280;65930;48.874;10.734;2024-02-23T12:56:23;94392.56;;;5.03;86.63
76998;BME280;65930;48.874;10.734;2024-02-23T12:58:52;94388.28;;;4.98;87.03
76998;BME280;65930;48.874;10.734;2024-02-23T13:01:21;94397.81;;;4.83;85.61